Mirage, Nebraska
Current Conditions -  °F | °C
As of 9:15 PM on Saturday 22 Nov 2014 (Local Time) from KHDE Reporting Station
Clear Clear  
Wind Chill: 40°   Ceiling: Unl
Heat Index: 44°   Visibility: 10mi
Dew Point: 35°   Wind: 8mph
Humidity: 70%   Direction: 180°S
Pressure: 29.54"   Gusts: NA
Location:  40.5474°N, 99.1227°W
Report Text: KHDE 230315Z AUTO 18007KT 10SM CLR 07/02 A2954 RMK AO2 T00690017
Loading
Personal Weather Stations






























Interactive Weather Map New forecast layout! Learn more

10-Day Weather Forecast

Advertisements
Track Severe Weather on mobile